sensor_id;sensor_type;location;lat;lon;timestamp;pressure;altitude;pressure_sealevel;temperature;humidity
49759;BME280;35654;46.080;11.118;2023-03-03T00:00:18;99500.72;;;5.04;96.85
49759;BME280;35654;46.080;11.118;2023-03-03T00:02:43;99505.03;;;5.00;96.40
49759;BME280;35654;46.080;11.118;2023-03-03T00:05:08;99508.56;;;5.01;96.60
49759;BME280;35654;46.080;11.118;2023-03-03T00:07:33;99504.66;;;4.92;96.25
49759;BME280;35654;46.080;11.118;2023-03-03T00:09:59;99501.28;;;4.80;96.47
49759;BME280;35654;46.080;11.118;2023-03-03T00:12:25;99509.09;;;4.76;97.33
49759;BME280;35654;46.080;11.118;2023-03-03T00:14:52;99505.06;;;4.79;97.28
49759;BME280;35654;46.080;11.118;2023-03-03T00:17:21;99511.53;;;4.78;97.51
49759;BME280;35654;46.080;11.118;2023-03-03T00:19:47;99500.69;;;4.78;97.08
49759;BME280;35654;46.080;11.118;2023-03-03T00:22:15;99505.31;;;4.77;97.29
49759;BME280;35654;46.080;11.118;2023-03-03T00:24:46;99499.81;;;4.72;97.70
49759;BME280;35654;46.080;11.118;2023-03-03T00:27:33;99511.16;;;4.69;97.79
49759;BME280;35654;46.080;11.118;2023-03-03T00:29:59;99505.69;;;4.64;97.87
49759;BME280;35654;46.080;11.118;2023-03-03T00:34:51;99503.97;;;4.58;98.27
49759;BME280;35654;46.080;11.118;2023-03-03T00:37:19;99500.47;;;4.57;98.25
49759;BME280;35654;46.080;11.118;2023-03-03T00:39:46;99502.38;;;4.57;98.63
49759;BME280;35654;46.080;11.118;2023-03-03T00:42:12;99502.88;;;4.54;98.39
49759;BME280;35654;46.080;11.118;2023-03-03T00:44:47;99507.97;;;4.50;98.53
49759;BME280;35654;46.080;11.118;2023-03-03T00:50:23;99505.63;;;4.37;98.81
49759;BME280;35654;46.080;11.118;2023-03-03T00:52:45;99509.69;;;4.35;99.07
49759;BME280;35654;46.080;11.118;2023-03-03T00:55:17;99514.00;;;4.36;99.47
49759;BME280;35654;46.080;11.118;2023-03-03T00:57:42;99514.28;;;4.34;99.46
49759;BME280;35654;46.080;11.118;2023-03-03T01:00:08;99513.22;;;4.35;99.77
49759;BME280;35654;46.080;11.118;2023-03-03T01:02:33;99510.78;;;4.39;99.89
49759;BME280;35654;46.080;11.118;2023-03-03T01:04:58;99513.28;;;4.40;99.65
49759;BME280;35654;46.080;11.118;2023-03-03T01:07:24;99507.03;;;4.40;99.00
49759;BME280;35654;46.080;11.118;2023-03-03T01:09:49;99511.88;;;4.38;98.90
49759;BME280;35654;46.080;11.118;2023-03-03T01:12:14;99505.31;;;4.34;99.09
49759;BME280;35654;46.080;11.118;2023-03-03T01:14:40;99502.03;;;4.32;99.53
49759;BME280;35654;46.080;11.118;2023-03-03T01:17:05;99503.09;;;4.31;99.41
49759;BME280;35654;46.080;11.118;2023-03-03T01:19:30;99502.78;;;4.27;99.30
49759;BME280;35654;46.080;11.118;2023-03-03T01:21:56;99500.59;;;4.24;99.25
49759;BME280;35654;46.080;11.118;2023-03-03T01:24:21;99492.97;;;4.21;99.29
49759;BME280;35654;46.080;11.118;2023-03-03T01:26:47;99505.91;;;4.19;99.24
49759;BME280;35654;46.080;11.118;2023-03-03T01:29:12;99492.56;;;4.13;98.94
49759;BME280;35654;46.080;11.118;2023-03-03T01:31:37;99492.50;;;4.07;99.13
49759;BME280;35654;46.080;11.118;2023-03-03T01:34:03;99491.63;;;4.02;99.55
49759;BME280;35654;46.080;11.118;2023-03-03T01:36:28;99492.13;;;3.99;100.00
49759;BME280;35654;46.080;11.118;2023-03-03T01:38:53;99487.41;;;3.94;100.00
49759;BME280;35654;46.080;11.118;2023-03-03T01:41:19;99485.53;;;3.95;100.00
49759;BME280;35654;46.080;11.118;2023-03-03T01:43:45;99486.94;;;3.97;100.00
49759;BME280;35654;46.080;11.118;2023-03-03T01:46:27;99484.78;;;3.99;100.00
49759;BME280;35654;46.080;11.118;2023-03-03T01:49:00;99483.50;;;4.02;100.00
49759;BME280;35654;46.080;11.118;2023-03-03T01:51:28;99478.06;;;4.02;99.48
49759;BME280;35654;46.080;11.118;2023-03-03T01:53:55;99475.84;;;3.99;99.58
49759;BME280;35654;46.080;11.118;2023-03-03T01:56:21;99475.53;;;3.95;99.40
49759;BME280;35654;46.080;11.118;2023-03-03T01:58:51;99475.19;;;3.92;99.57
49759;BME280;35654;46.080;11.118;2023-03-03T02:01:18;99475.69;;;3.89;99.72
49759;BME280;35654;46.080;11.118;2023-03-03T02:03:44;99479.50;;;3.88;100.00
49759;BME280;35654;46.080;11.118;2023-03-03T02:06:10;99480.53;;;3.87;100.00
49759;BME280;35654;46.080;11.118;2023-03-03T02:08:53;99477.56;;;3.88;100.00
49759;BME280;35654;46.080;11.118;2023-03-03T02:11:23;99472.75;;;3.90;100.00
49759;BME280;35654;46.080;11.118;2023-03-03T02:13:49;99476.25;;;3.91;100.00
49759;BME280;35654;46.080;11.118;2023-03-03T02:16:14;99471.09;;;3.89;100.00
49759;BME280;35654;46.080;11.118;2023-03-03T02:18:40;99468.06;;;3.86;100.00
49759;BME280;35654;46.080;11.118;2023-03-03T02:21:06;99467.00;;;3.87;100.00
49759;BME280;35654;46.080;11.118;2023-03-03T02:26:08;99465.84;;;3.83;99.90
49759;BME280;35654;46.080;11.118;2023-03-03T02:28:35;99458.81;;;3.82;100.00
49759;BME280;35654;46.080;11.118;2023-03-03T02:31:01;99456.81;;;3.77;100.00
49759;BME280;35654;46.080;11.118;2023-03-03T02:33:27;99452.81;;;3.80;100.00
49759;BME280;35654;46.080;11.118;2023-03-03T02:35:53;99450.91;;;3.80;100.00
49759;BME280;35654;46.080;11.118;2023-03-03T02:38:21;99449.03;;;3.81;99.79
49759;BME280;35654;46.080;11.118;2023-03-03T02:43:52;99448.69;;;3.77;99.78
49759;BME280;35654;46.080;11.118;2023-03-03T02:46:21;99456.25;;;3.75;99.57
49759;BME280;35654;46.080;11.118;2023-03-03T02:48:46;99447.56;;;3.73;99.31
49759;BME280;35654;46.080;11.118;2023-03-03T02:51:11;99445.94;;;3.72;99.12
49759;BME280;35654;46.080;11.118;2023-03-03T02:53:37;99448.06;;;3.70;99.00
49759;BME280;35654;46.080;11.118;2023-03-03T02:56:02;99452.66;;;3.70;99.24
49759;BME280;35654;46.080;11.118;2023-03-03T02:58:28;99453.16;;;3.67;99.16
49759;BME280;35654;46.080;11.118;2023-03-03T03:00:53;99444.47;;;3.65;98.99
49759;BME280;35654;46.080;11.118;2023-03-03T03:03:19;99446.63;;;3.63;98.98
49759;BME280;35654;46.080;11.118;2023-03-03T03:05:44;99447.09;;;3.60;99.16
49759;BME280;35654;46.080;11.118;2023-03-03T03:08:10;99442.19;;;3.57;99.53
49759;BME280;35654;46.080;11.118;2023-03-03T03:10:35;99445.94;;;3.56;100.00
49759;BME280;35654;46.080;11.118;2023-03-03T03:13:00;99444.28;;;3.54;99.94
49759;BME280;35654;46.080;11.118;2023-03-03T03:15:26;99439.91;;;3.48;99.92
49759;BME280;35654;46.080;11.118;2023-03-03T03:17:51;99448.25;;;3.47;100.00
49759;BME280;35654;46.080;11.118;2023-03-03T03:20:16;99442.28;;;3.45;100.00
49759;BME280;35654;46.080;11.118;2023-03-03T03:22:42;99444.91;;;3.40;100.00
49759;BME280;35654;46.080;11.118;2023-03-03T03:25:07;99446.94;;;3.33;100.00
49759;BME280;35654;46.080;11.118;2023-03-03T03:27:32;99443.59;;;3.26;100.00
49759;BME280;35654;46.080;11.118;2023-03-03T03:29:58;99437.50;;;3.19;100.00
49759;BME280;35654;46.080;11.118;2023-03-03T03:32:23;99439.06;;;3.15;100.00
49759;BME280;35654;46.080;11.118;2023-03-03T03:34:48;99438.00;;;3.16;100.00
49759;BME280;35654;46.080;11.118;2023-03-03T03:37:13;99429.66;;;3.17;100.00
49759;BME280;35654;46.080;11.118;2023-03-03T03:39:39;99431.59;;;3.22;100.00
49759;BME280;35654;46.080;11.118;2023-03-03T03:42:04;99425.97;;;3.23;100.00
49759;BME280;35654;46.080;11.118;2023-03-03T03:44:30;99432.19;;;3.24;100.00
49759;BME280;35654;46.080;11.118;2023-03-03T03:46:55;99429.72;;;3.22;100.00
49759;BME280;35654;46.080;11.118;2023-03-03T03:49:20;99431.88;;;3.20;100.00
49759;BME280;35654;46.080;11.118;2023-03-03T03:51:45;99423.97;;;3.19;100.00
49759;BME280;35654;46.080;11.118;2023-03-03T03:54:11;99434.00;;;3.18;100.00
49759;BME280;35654;46.080;11.118;2023-03-03T03:56:36;99430.69;;;3.16;100.00
49759;BME280;35654;46.080;11.118;2023-03-03T03:59:01;99426.69;;;3.19;100.00
49759;BME280;35654;46.080;11.118;2023-03-03T04:01:27;99425.13;;;3.23;100.00
49759;BME280;35654;46.080;11.118;2023-03-03T04:03:52;99422.03;;;3.14;100.00
49759;BME280;35654;46.080;11.118;2023-03-03T04:06:17;99427.44;;;3.14;100.00
49759;BME280;35654;46.080;11.118;2023-03-03T04:08:42;99426.38;;;3.15;100.00
49759;BME280;35654;46.080;11.118;2023-03-03T04:11:08;99426.13;;;3.17;100.00
49759;BME280;35654;46.080;11.118;2023-03-03T04:13:33;99421.19;;;3.14;100.00
49759;BME280;35654;46.080;11.118;2023-03-03T04:15:59;99426.53;;;3.09;100.00
49759;BME280;35654;46.080;11.118;2023-03-03T04:18:25;99428.81;;;3.00;100.00
49759;BME280;35654;46.080;11.118;2023-03-03T04:20:50;99424.63;;;2.92;100.00
49759;BME280;35654;46.080;11.118;2023-03-03T04:23:16;99424.38;;;2.94;100.00
49759;BME280;35654;46.080;11.118;2023-03-03T04:25:41;99430.94;;;2.98;100.00
49759;BME280;35654;46.080;11.118;2023-03-03T04:28:07;99428.25;;;2.98;100.00
49759;BME280;35654;46.080;11.118;2023-03-03T04:30:32;99426.94;;;3.01;100.00
49759;BME280;35654;46.080;11.118;2023-03-03T04:32:57;99426.09;;;3.00;100.00
49759;BME280;35654;46.080;11.118;2023-03-03T04:35:22;99427.56;;;2.91;100.00
49759;BME280;35654;46.080;11.118;2023-03-03T04:37:48;99435.09;;;2.89;100.00
49759;BME280;35654;46.080;11.118;2023-03-03T04:40:13;99425.34;;;2.88;100.00
49759;BME280;35654;46.080;11.118;2023-03-03T04:42:38;99422.06;;;2.86;100.00
49759;BME280;35654;46.080;11.118;2023-03-03T04:45:04;99416.09;;;2.84;100.00
49759;BME280;35654;46.080;11.118;2023-03-03T04:47:29;99422.91;;;2.86;100.00
49759;BME280;35654;46.080;11.118;2023-03-03T04:49:56;99422.91;;;2.86;100.00
49759;BME280;35654;46.080;11.118;2023-03-03T04:52:21;99429.13;;;2.87;100.00
49759;BME280;35654;46.080;11.118;2023-03-03T04:54:46;99428.31;;;2.86;100.00
49759;BME280;35654;46.080;11.118;2023-03-03T04:57:12;99425.59;;;2.86;100.00
49759;BME280;35654;46.080;11.118;2023-03-03T04:59:37;99423.94;;;2.85;100.00
49759;BME280;35654;46.080;11.118;2023-03-03T05:02:02;99422.94;;;2.75;99.71
49759;BME280;35654;46.080;11.118;2023-03-03T05:04:29;99427.94;;;2.66;99.89
49759;BME280;35654;46.080;11.118;2023-03-03T05:06:54;99417.13;;;2.66;100.00
49759;BME280;35654;46.080;11.118;2023-03-03T05:09:21;99423.91;;;2.69;100.00
49759;BME280;35654;46.080;11.118;2023-03-03T05:11:46;99427.44;;;2.69;100.00
49759;BME280;35654;46.080;11.118;2023-03-03T05:14:12;99422.88;;;2.70;100.00
49759;BME280;35654;46.080;11.118;2023-03-03T05:16:37;99422.59;;;2.71;100.00
49759;BME280;35654;46.080;11.118;2023-03-03T05:19:02;99425.09;;;2.73;100.00
49759;BME280;35654;46.080;11.118;2023-03-03T05:21:28;99418.84;;;2.72;99.86
49759;BME280;35654;46.080;11.118;2023-03-03T05:23:53;99417.69;;;2.68;100.00
49759;BME280;35654;46.080;11.118;2023-03-03T05:26:18;99411.22;;;2.69;100.00
49759;BME280;35654;46.080;11.118;2023-03-03T05:28:43;99423.09;;;2.68;100.00
49759;BME280;35654;46.080;11.118;2023-03-03T05:31:09;99417.59;;;2.63;99.49
49759;BME280;35654;46.080;11.118;2023-03-03T05:33:34;99419.03;;;2.54;99.18
49759;BME280;35654;46.080;11.118;2023-03-03T05:35:59;99411.09;;;2.48;98.94
49759;BME280;35654;46.080;11.118;2023-03-03T05:38:24;99419.69;;;2.45;99.77
49759;BME280;35654;46.080;11.118;2023-03-03T05:40:50;99417.31;;;2.48;100.00
49759;BME280;35654;46.080;11.118;2023-03-03T05:43:15;99414.22;;;2.56;99.86
49759;BME280;35654;46.080;11.118;2023-03-03T05:45:40;99416.69;;;2.58;99.24
49759;BME280;35654;46.080;11.118;2023-03-03T05:48:05;99428.88;;;2.60;98.88
49759;BME280;35654;46.080;11.118;2023-03-03T05:50:31;99431.94;;;2.64;98.58
49759;BME280;35654;46.080;11.118;2023-03-03T05:52:57;99427.59;;;2.63;98.16
49759;BME280;35654;46.080;11.118;2023-03-03T05:55:22;99432.41;;;2.61;97.51
49759;BME280;35654;46.080;11.118;2023-03-03T05:57:48;99445.50;;;2.52;97.49
49759;BME280;35654;46.080;11.118;2023-03-03T06:00:13;99436.69;;;2.57;97.98
49759;BME280;35654;46.080;11.118;2023-03-03T06:02:40;99437.81;;;2.61;98.11
49759;BME280;35654;46.080;11.118;2023-03-03T06:05:05;99428.97;;;2.65;97.71
49759;BME280;35654;46.080;11.118;2023-03-03T06:07:31;99446.41;;;2.58;97.26
49759;BME280;35654;46.080;11.118;2023-03-03T06:09:56;99444.00;;;2.45;96.82
49759;BME280;35654;46.080;11.118;2023-03-03T06:12:21;99455.63;;;2.45;97.81
49759;BME280;35654;46.080;11.118;2023-03-03T06:14:47;99453.25;;;2.49;97.77
49759;BME280;35654;46.080;11.118;2023-03-03T06:17:12;99451.59;;;2.59;98.14
49759;BME280;35654;46.080;11.118;2023-03-03T06:19:37;99452.81;;;2.68;97.52
49759;BME280;35654;46.080;11.118;2023-03-03T06:22:03;99449.72;;;2.76;96.92
49759;BME280;35654;46.080;11.118;2023-03-03T06:24:28;99448.78;;;2.82;96.01
49759;BME280;35654;46.080;11.118;2023-03-03T06:26:56;99455.47;;;2.80;95.34
49759;BME280;35654;46.080;11.118;2023-03-03T06:29:21;99458.34;;;2.73;95.03
49759;BME280;35654;46.080;11.118;2023-03-03T06:31:46;99456.56;;;2.79;95.77
49759;BME280;35654;46.080;11.118;2023-03-03T06:34:11;99453.56;;;2.92;95.96
49759;BME280;35654;46.080;11.118;2023-03-03T06:36:37;99455.94;;;3.05;94.79
49759;BME280;35654;46.080;11.118;2023-03-03T06:39:02;99462.94;;;3.18;93.89
49759;BME280;35654;46.080;11.118;2023-03-03T06:41:28;99461.97;;;3.24;93.31
49759;BME280;35654;46.080;11.118;2023-03-03T06:43:53;99464.34;;;3.20;92.34
49759;BME280;35654;46.080;11.118;2023-03-03T06:46:18;99465.66;;;3.18;92.63
49759;BME280;35654;46.080;11.118;2023-03-03T06:48:44;99474.75;;;3.28;93.39
49759;BME280;35654;46.080;11.118;2023-03-03T06:51:15;99480.09;;;3.40;92.75
49759;BME280;35654;46.080;11.118;2023-03-03T06:53:44;99474.25;;;3.48;92.65
49759;BME280;35654;46.080;11.118;2023-03-03T06:56:09;99475.50;;;3.57;92.12
49759;BME280;35654;46.080;11.118;2023-03-03T06:58:34;99475.81;;;3.61;91.95
49759;BME280;35654;46.080;11.118;2023-03-03T07:01:00;99481.06;;;3.67;91.56
49759;BME280;35654;46.080;11.118;2023-03-03T07:03:27;99481.06;;;3.67;91.34
49759;BME280;35654;46.080;11.118;2023-03-03T07:05:56;99483.84;;;3.72;91.32
49759;BME280;35654;46.080;11.118;2023-03-03T07:08:22;99478.59;;;3.82;91.28
49759;BME280;35654;46.080;11.118;2023-03-03T07:10:48;99478.97;;;3.91;89.99
49759;BME280;35654;46.080;11.118;2023-03-03T07:13:18;99480.28;;;3.88;88.29
49759;BME280;35654;46.080;11.118;2023-03-03T07:15:44;99480.06;;;3.90;87.72
49759;BME280;35654;46.080;11.118;2023-03-03T07:18:24;99484.72;;;3.94;87.68
49759;BME280;35654;46.080;11.118;2023-03-03T07:20:50;99491.03;;;4.00;87.56
49759;BME280;35654;46.080;11.118;2023-03-03T07:25:41;99487.31;;;4.06;87.40
49759;BME280;35654;46.080;11.118;2023-03-03T07:28:12;99492.56;;;4.13;86.51
49759;BME280;35654;46.080;11.118;2023-03-03T07:30:40;99488.09;;;4.23;85.74
49759;BME280;35654;46.080;11.118;2023-03-03T07:33:07;99482.41;;;4.25;85.18
49759;BME280;35654;46.080;11.118;2023-03-03T07:35:43;99488.22;;;4.33;84.75
49759;BME280;35654;46.080;11.118;2023-03-03T07:40:54;99476.19;;;4.46;84.21
49759;BME280;35654;46.080;11.118;2023-03-03T07:45:48;99488.25;;;4.55;84.30
49759;BME280;35654;46.080;11.118;2023-03-03T07:51:16;99489.84;;;4.78;83.75
49759;BME280;35654;46.080;11.118;2023-03-03T07:53:43;99487.44;;;4.81;82.67
49759;BME280;35654;46.080;11.118;2023-03-03T07:56:16;99490.34;;;4.96;82.35
49759;BME280;35654;46.080;11.118;2023-03-03T07:58:45;99485.72;;;5.23;81.88
49759;BME280;35654;46.080;11.118;2023-03-03T08:04:12;99491.63;;;5.79;79.61
49759;BME280;35654;46.080;11.118;2023-03-03T08:06:41;99498.59;;;6.02;77.50
49759;BME280;35654;46.080;11.118;2023-03-03T08:11:33;99494.34;;;6.21;75.88
49759;BME280;35654;46.080;11.118;2023-03-03T08:13:58;99497.38;;;6.24;74.92
49759;BME280;35654;46.080;11.118;2023-03-03T08:16:34;99493.09;;;6.33;74.59
49759;BME280;35654;46.080;11.118;2023-03-03T08:19:02;99486.81;;;6.33;74.42
49759;BME280;35654;46.080;11.118;2023-03-03T08:21:28;99492.84;;;6.45;74.04
49759;BME280;35654;46.080;11.118;2023-03-03T08:23:55;99486.16;;;6.73;73.08
49759;BME280;35654;46.080;11.118;2023-03-03T08:26:21;99484.53;;;6.72;72.64
49759;BME280;35654;46.080;11.118;2023-03-03T08:28:47;99484.59;;;6.92;73.01
49759;BME280;35654;46.080;11.118;2023-03-03T08:31:12;99491.72;;;7.23;71.48
49759;BME280;35654;46.080;11.118;2023-03-03T08:33:38;99488.75;;;7.25;70.87
49759;BME280;35654;46.080;11.118;2023-03-03T08:36:04;99483.84;;;7.32;70.00
49759;BME280;35654;46.080;11.118;2023-03-03T08:38:29;99484.13;;;7.60;68.92
49759;BME280;35654;46.080;11.118;2023-03-03T08:40:55;99481.13;;;7.92;67.75
49759;BME280;35654;46.080;11.118;2023-03-03T08:43:20;99468.56;;;8.11;66.40
49759;BME280;35654;46.080;11.118;2023-03-03T08:45:53;99479.72;;;8.15;65.76
49759;BME280;35654;46.080;11.118;2023-03-03T08:48:22;99474.28;;;8.00;66.24
49759;BME280;35654;46.080;11.118;2023-03-03T08:50:47;99473.44;;;8.14;66.02
49759;BME280;35654;46.080;11.118;2023-03-03T08:53:13;99472.63;;;8.19;65.47
49759;BME280;35654;46.080;11.118;2023-03-03T08:55:38;99471.84;;;7.98;65.63
49759;BME280;35654;46.080;11.118;2023-03-03T08:58:04;99475.38;;;7.99;66.13
49759;BME280;35654;46.080;11.118;2023-03-03T09:00:29;99477.78;;;8.15;65.39
49759;BME280;35654;46.080;11.118;2023-03-03T09:02:54;99480.00;;;8.08;65.47
49759;BME280;35654;46.080;11.118;2023-03-03T09:05:20;99483.25;;;8.26;64.86
49759;BME280;35654;46.080;11.118;2023-03-03T09:07:46;99485.41;;;8.23;64.38
49759;BME280;35654;46.080;11.118;2023-03-03T09:10:13;99484.38;;;8.09;64.72
49759;BME280;35654;46.080;11.118;2023-03-03T09:12:40;99489.31;;;7.97;64.76
49759;BME280;35654;46.080;11.118;2023-03-03T09:17:36;99486.03;;;7.95;63.82
49759;BME280;35654;46.080;11.118;2023-03-03T09:20:22;99485.75;;;7.82;64.53
49759;BME280;35654;46.080;11.118;2023-03-03T09:22:48;99480.28;;;7.97;63.89
49759;BME280;35654;46.080;11.118;2023-03-03T09:27:45;99478.63;;;8.16;62.66
49759;BME280;35654;46.080;11.118;2023-03-03T09:32:48;99473.66;;;8.43;62.82
49759;BME280;35654;46.080;11.118;2023-03-03T09:37:51;99473.91;;;8.52;61.37
49759;BME280;35654;46.080;11.118;2023-03-03T09:43:14;99464.56;;;8.63;61.20
49759;BME280;35654;46.080;11.118;2023-03-03T09:45:52;99467.25;;;8.78;60.19
49759;BME280;35654;46.080;11.118;2023-03-03T09:48:28;99466.16;;;8.79;59.69
49759;BME280;35654;46.080;11.118;2023-03-03T10:06:28;99446.06;;;9.76;57.35
49759;BME280;35654;46.080;11.118;2023-03-03T10:14:30;99437.63;;;10.49;54.52
49759;BME280;35654;46.080;11.118;2023-03-03T10:17:05;99429.91;;;10.75;53.18
49759;BME280;35654;46.080;11.118;2023-03-03T10:19:39;99431.78;;;11.17;52.57
49759;BME280;35654;46.080;11.118;2023-03-03T10:32:39;99407.97;;;14.41;41.59
49759;BME280;35654;46.080;11.118;2023-03-03T10:38:51;99414.44;;;15.27;41.04
49759;BME280;35654;46.080;11.118;2023-03-03T10:51:23;99391.88;;;14.82;40.42
49759;BME280;35654;46.080;11.118;2023-03-03T11:04:16;99375.94;;;19.55;31.78
49759;BME280;35654;46.080;11.118;2023-03-03T11:06:52;99375.19;;;19.30;32.03
49759;BME280;35654;46.080;11.118;2023-03-03T11:12:05;99370.16;;;19.20;32.13
49759;BME280;35654;46.080;11.118;2023-03-03T11:14:32;99360.94;;;19.44;31.89
49759;BME280;35654;46.080;11.118;2023-03-03T11:17:19;99358.50;;;20.29;30.46
49759;BME280;35654;46.080;11.118;2023-03-03T11:22:49;99346.78;;;22.50;26.87
49759;BME280;35654;46.080;11.118;2023-03-03T11:25:22;99343.41;;;22.90;25.76
49759;BME280;35654;46.080;11.118;2023-03-03T11:32:53;99331.53;;;23.26;26.13
49759;BME280;35654;46.080;11.118;2023-03-03T11:40:21;99308.75;;;26.25;21.78
49759;BME280;35654;46.080;11.118;2023-03-03T11:45:17;99307.84;;;22.83;24.01
49759;BME280;35654;46.080;11.118;2023-03-03T11:47:54;99302.28;;;22.87;24.49
49759;BME280;35654;46.080;11.118;2023-03-03T11:50:25;99293.19;;;22.64;24.84
49759;BME280;35654;46.080;11.118;2023-03-03T11:53:07;99287.84;;;21.83;25.37
49759;BME280;35654;46.080;11.118;2023-03-03T11:55:38;99281.16;;;22.33;24.87
49759;BME280;35654;46.080;11.118;2023-03-03T12:00:41;99270.44;;;21.06;25.81
49759;BME280;35654;46.080;11.118;2023-03-03T12:03:52;99266.81;;;21.44;25.97
49759;BME280;35654;46.080;11.118;2023-03-03T12:11:14;99258.38;;;23.91;22.98
49759;BME280;35654;46.080;11.118;2023-03-03T12:19:02;99252.75;;;24.96;21.69
49759;BME280;35654;46.080;11.118;2023-03-03T12:21:37;99248.63;;;24.76;22.07
49759;BME280;35654;46.080;11.118;2023-03-03T12:24:15;99245.41;;;24.12;22.34
49759;BME280;35654;46.080;11.118;2023-03-03T12:39:44;99230.09;;;19.92;28.56
49759;BME280;35654;46.080;11.118;2023-03-03T12:44:40;99222.59;;;20.62;28.15
49759;BME280;35654;46.080;11.118;2023-03-03T12:47:12;99222.44;;;21.32;26.81
49759;BME280;35654;46.080;11.118;2023-03-03T12:49:45;99220.69;;;20.66;27.55
49759;BME280;35654;46.080;11.118;2023-03-03T12:55:01;99219.66;;;20.05;28.55
49759;BME280;35654;46.080;11.118;2023-03-03T13:10:50;99204.59;;;17.47;32.10
49759;BME280;35654;46.080;11.118;2023-03-03T13:13:23;99215.69;;;17.35;32.41
49759;BME280;35654;46.080;11.118;2023-03-03T13:16:01;99213.31;;;17.58;31.56
49759;BME280;35654;46.080;11.118;2023-03-03T13:21:54;99215.00;;;17.38;31.59
49759;BME280;35654;46.080;11.118;2023-03-03T13:26:40;99202.81;;;17.07;31.82
49759;BME280;35654;46.080;11.118;2023-03-03T13:31:34;99207.13;;;17.28;30.94
49759;BME280;35654;46.080;11.118;2023-03-03T13:34:01;99204.94;;;16.89;30.96
49759;BME280;35654;46.080;11.118;2023-03-03T13:36:33;99196.16;;;16.75;31.48
49759;BME280;35654;46.080;11.118;2023-03-03T13:39:18;99205.16;;;16.84;31.82
49759;BME280;35654;46.080;11.118;2023-03-03T13:41:47;99202.53;;;17.32;31.21
49759;BME280;35654;46.080;11.118;2023-03-03T13:44:21;99199.69;;;17.65;30.98
49759;BME280;35654;46.080;11.118;2023-03-03T13:49:28;99191.56;;;17.24;31.96
49759;BME280;35654;46.080;11.118;2023-03-03T13:52:07;99194.50;;;17.07;32.68
49759;BME280;35654;46.080;11.118;2023-03-03T13:59:35;99188.31;;;16.56;33.72
49759;BME280;35654;46.080;11.118;2023-03-03T14:02:15;99189.41;;;16.43;33.71
49759;BME280;35654;46.080;11.118;2023-03-03T14:09:44;99186.69;;;15.55;35.76
49759;BME280;35654;46.080;11.118;2023-03-03T14:17:07;99188.19;;;15.53;36.43
49759;BME280;35654;46.080;11.118;2023-03-03T14:19:47;99177.34;;;15.77;36.24
49759;BME280;35654;46.080;11.118;2023-03-03T14:27:26;99187.13;;;15.28;37.61
49759;BME280;35654;46.080;11.118;2023-03-03T14:29:52;99185.38;;;15.15;37.90
49759;BME280;35654;46.080;11.118;2023-03-03T14:32:25;99184.59;;;15.06;38.04
49759;BME280;35654;46.080;11.118;2023-03-03T14:34:57;99180.06;;;15.10;37.86
49759;BME280;35654;46.080;11.118;2023-03-03T14:37:41;99189.09;;;15.10;38.02
49759;BME280;35654;46.080;11.118;2023-03-03T14:40:15;99188.31;;;15.19;37.83
49759;BME280;35654;46.080;11.118;2023-03-03T14:43:02;99183.88;;;15.26;38.12
49759;BME280;35654;46.080;11.118;2023-03-03T14:47:55;99189.53;;;14.75;39.19
49759;BME280;35654;46.080;11.118;2023-03-03T14:50:36;99191.97;;;14.59;39.32
49759;BME280;35654;46.080;11.118;2023-03-03T14:53:19;99184.16;;;14.78;39.26
49759;BME280;35654;46.080;11.118;2023-03-03T14:55:46;99183.50;;;14.30;40.12
49759;BME280;35654;46.080;11.118;2023-03-03T15:03:31;99169.59;;;15.70;38.26
49759;BME280;35654;46.080;11.118;2023-03-03T15:06:07;99170.19;;;16.47;37.17
49759;BME280;35654;46.080;11.118;2023-03-03T15:08:34;99167.00;;;16.77;36.23
49759;BME280;35654;46.080;11.118;2023-03-03T15:13:38;99165.22;;;17.63;34.85
49759;BME280;35654;46.080;11.118;2023-03-03T15:16:16;99172.66;;;18.90;32.58
49759;BME280;35654;46.080;11.118;2023-03-03T15:19:00;99174.31;;;18.51;33.24
49759;BME280;35654;46.080;11.118;2023-03-03T15:21:32;99167.97;;;19.06;31.94
49759;BME280;35654;46.080;11.118;2023-03-03T15:29:15;99185.59;;;18.19;33.16
49759;BME280;35654;46.080;11.118;2023-03-03T15:31:52;99172.34;;;17.88;33.66
49759;BME280;35654;46.080;11.118;2023-03-03T15:34:39;99171.03;;;17.37;34.59
49759;BME280;35654;46.080;11.118;2023-03-03T15:47:40;99186.00;;;14.57;40.26
49759;BME280;35654;46.080;11.118;2023-03-03T15:50:38;99184.03;;;14.23;41.44
49759;BME280;35654;46.080;11.118;2023-03-03T15:55:55;99184.88;;;13.59;42.79
49759;BME280;35654;46.080;11.118;2023-03-03T16:00:57;99184.84;;;13.50;43.46
49759;BME280;35654;46.080;11.118;2023-03-03T16:03:30;99186.84;;;13.27;43.87
49759;BME280;35654;46.080;11.118;2023-03-03T16:06:04;99190.50;;;13.14;44.30
49759;BME280;35654;46.080;11.118;2023-03-03T16:08:37;99188.56;;;13.15;44.63
49759;BME280;35654;46.080;11.118;2023-03-03T16:11:07;99187.38;;;12.85;45.38
49759;BME280;35654;46.080;11.118;2023-03-03T16:13:40;99190.72;;;12.73;45.85
49759;BME280;35654;46.080;11.118;2023-03-03T16:18:55;99188.34;;;12.58;46.28
49759;BME280;35654;46.080;11.118;2023-03-03T16:23:55;99199.63;;;12.35;47.53
49759;BME280;35654;46.080;11.118;2023-03-03T16:26:58;99202.16;;;12.31;48.05
49759;BME280;35654;46.080;11.118;2023-03-03T16:34:59;99215.69;;;12.05;48.71
49759;BME280;35654;46.080;11.118;2023-03-03T16:44:52;99230.03;;;11.89;49.47
49759;BME280;35654;46.080;11.118;2023-03-03T16:52:23;99246.31;;;11.72;50.50
49759;BME280;35654;46.080;11.118;2023-03-03T16:54:54;99248.63;;;11.78;50.76
49759;BME280;35654;46.080;11.118;2023-03-03T16:57:31;99257.16;;;11.63;51.55
49759;BME280;35654;46.080;11.118;2023-03-03T17:00:20;99255.81;;;11.60;51.70
49759;BME280;35654;46.080;11.118;2023-03-03T17:05:27;99266.47;;;11.48;52.05
49759;BME280;35654;46.080;11.118;2023-03-03T17:34:35;99298.31;;;11.31;54.57